Time;durP1;ratioP1;P1;durP2;ratioP2;P2;SDS_P1;SDS_P2;PMS_P1;PMS_P2;Temp;Humidity;BMP_temperature;BMP_pressure;BME280_temperature;BME280_humidity;BME280_pressure;Samples;Min_cycle;Max_cycle;Signal;HPM_P1;HPM_P2
2021/05/13 00:00:00;;;;;;;11.05;2.75;;;13.40;99.90;;;;;;5060313;28;20116;-82
2021/05/13 00:02:27;;;;;;;13.32;3.15;;;13.40;99.90;;;;;;5050577;28;20052;-82
2021/05/13 00:04:54;;;;;;;9.00;2.83;;;13.40;99.90;;;;;;5060337;28;20463;-82
2021/05/13 00:07:20;;;;;;;16.50;4.60;;;13.50;99.90;;;;;;5036172;28;20155;-81
2021/05/13 00:09:49;;;;;;;17.50;3.88;;;13.40;99.90;;;;;;5048571;28;20052;-81
2021/05/13 00:15:39;;;;;;;9.02;2.90;;;13.30;99.90;;;;;;5016103;28;20056;-82
2021/05/13 00:18:06;;;;;;;13.32;3.42;;;13.30;99.90;;;;;;5047040;28;20040;-82
2021/05/13 00:20:41;;;;;;;12.27;3.10;;;13.20;99.90;;;;;;5036487;28;20844;-82
2021/05/13 00:23:08;;;;;;;12.98;3.78;;;13.30;99.90;;;;;;5056732;28;20466;-82
2021/05/13 00:25:36;;;;;;;10.65;2.90;;;13.20;99.90;;;;;;5043060;28;20052;-82
2021/05/13 00:28:03;;;;;;;17.58;4.40;;;13.20;99.90;;;;;;5052852;28;20045;-82
2021/05/13 00:30:30;;;;;;;13.13;3.40;;;13.20;99.90;;;;;;5050923;28;20045;-82
2021/05/13 00:32:57;;;;;;;14.20;3.70;;;13.10;99.90;;;;;;5048524;28;20053;-82
2021/05/13 00:35:23;;;;;;;14.30;3.30;;;13.00;99.90;;;;;;5062451;28;20133;-82
2021/05/13 00:37:50;;;;;;;8.38;3.00;;;13.00;99.90;;;;;;5063287;28;20053;-82
2021/05/13 00:40:21;;;;;;;7.97;3.08;;;13.00;99.90;;;;;;5065358;28;20160;-82
2021/05/13 00:42:48;;;;;;;8.93;2.65;;;12.90;99.90;;;;;;5054401;28;20148;-82
2021/05/13 00:45:16;;;;;;;18.42;4.45;;;12.80;99.90;;;;;;5048138;28;20104;-82
2021/05/13 00:47:47;;;;;;;17.92;4.30;;;12.80;99.90;;;;;;5042992;28;20052;-82
2021/05/13 00:50:16;;;;;;;17.70;3.92;;;12.70;99.90;;;;;;5047158;28;20051;-81
2021/05/13 00:52:43;;;;;;;15.68;4.03;;;12.70;99.90;;;;;;5047510;28;20080;-81
2021/05/13 00:55:11;;;;;;;13.73;4.07;;;12.70;99.90;;;;;;5046622;28;20076;-81
2021/05/13 00:57:42;;;;;;;9.82;3.47;;;12.60;99.90;;;;;;5045743;28;20492;-82
2021/05/13 01:00:31;;;;;;;12.40;3.38;;;12.50;99.90;;;;;;5047583;28;20051;-82
2021/05/13 01:02:57;;;;;;;12.57;3.55;;;12.50;99.90;;;;;;5049152;28;20041;-81
2021/05/13 01:05:24;;;;;;;12.57;4.18;;;12.40;99.90;;;;;;5062045;28;20106;-82
2021/05/13 01:07:51;;;;;;;9.57;3.17;;;12.30;99.90;;;;;;5048696;28;20500;-82
2021/05/13 01:10:18;;;;;;;10.95;3.20;;;12.20;99.90;;;;;;5048792;28;20179;-83
2021/05/13 01:12:46;;;;;;;11.63;4.20;;;12.20;99.90;;;;;;5038213;28;20045;-82
2021/05/13 01:18:00;;;;;;;14.38;3.42;;;12.10;99.90;;;;;;5045915;28;20049;-82
2021/05/13 01:20:28;;;;;;;13.85;5.00;;;12.00;99.90;;;;;;5049710;28;20085;-82
2021/05/13 01:22:57;;;;;;;12.07;5.00;;;11.90;99.90;;;;;;5045380;28;20048;-82
2021/05/13 01:25:25;;;;;;;15.27;4.28;;;11.80;99.90;;;;;;5047366;28;20076;-82
2021/05/13 01:28:00;;;;;;;12.18;4.43;;;11.80;99.90;;;;;;5046929;28;20076;-82
2021/05/13 01:30:28;;;;;;;13.00;3.97;;;11.70;99.90;;;;;;5047700;28;20096;-83
2021/05/13 01:32:59;;;;;;;12.63;3.80;;;11.70;99.90;;;;;;5042125;28;20467;-82
2021/05/13 01:35:27;;;;;;;18.75;5.40;;;11.60;99.90;;;;;;5042967;28;20072;-83
2021/05/13 01:38:15;;;;;;;17.60;4.50;;;11.60;99.90;;;;;;5063898;28;20141;-83
2021/05/13 01:41:00;;;;;;;14.07;3.60;;;11.50;99.90;;;;;;5046162;28;20063;-82
2021/05/13 01:43:31;;;;;;;15.80;4.15;;;11.50;99.90;;;;;;5062831;28;20057;-82
2021/05/13 01:45:59;;;;;;;15.13;4.07;;;11.40;99.90;;;;;;5048190;28;20080;-82
2021/05/13 01:48:27;;;;;;;10.63;4.03;;;11.40;99.90;;;;;;5044858;28;20056;-82
2021/05/13 01:50:55;;;;;;;9.73;3.42;;;11.30;99.90;;;;;;5064742;28;20073;-82
2021/05/13 01:53:22;;;;;;;11.40;3.83;;;11.30;99.90;;;;;;5046029;28;20522;-83
2021/05/13 01:55:49;;;;;;;11.50;4.20;;;11.30;99.90;;;;;;5047603;28;20052;-81
2021/05/13 01:58:16;;;;;;;14.43;4.45;;;11.20;99.90;;;;;;5042642;28;20069;-82
2021/05/13 02:00:45;;;;;;;9.30;3.72;;;11.20;99.90;;;;;;5064932;28;20073;-81
2021/05/13 02:03:13;;;;;;;16.30;4.60;;;11.10;99.90;;;;;;5047757;28;20033;-82
2021/05/13 02:05:39;;;;;;;14.30;4.97;;;11.00;99.90;;;;;;5046678;28;20067;-82
2021/05/13 02:08:06;;;;;;;13.73;4.43;;;11.00;99.90;;;;;;5044357;28;20109;-81
2021/05/13 02:10:33;;;;;;;17.67;4.90;;;10.90;99.90;;;;;;5045047;28;20508;-82
2021/05/13 02:13:00;;;;;;;22.25;4.75;;;10.80;99.90;;;;;;5044252;28;20059;-82
2021/05/13 02:15:27;;;;;;;11.45;4.15;;;10.80;99.90;;;;;;5046024;28;20049;-83
2021/05/13 02:17:54;;;;;;;14.27;5.03;;;10.70;99.90;;;;;;5059945;28;20055;-81
2021/05/13 02:20:23;;;;;;;20.65;5.20;;;10.70;99.90;;;;;;5059873;28;20683;-82
2021/05/13 02:22:50;;;;;;;10.85;4.47;;;10.70;99.90;;;;;;5045672;28;20053;-81
2021/05/13 02:25:21;;;;;;;9.63;4.38;;;10.60;99.90;;;;;;5046352;28;20050;-81
2021/05/13 02:27:47;;;;;;;11.75;3.90;;;10.60;99.90;;;;;;5044673;28;20079;-81
2021/05/13 02:30:15;;;;;;;19.35;5.07;;;10.50;99.90;;;;;;5045377;28;21012;-81
2021/05/13 02:32:42;;;;;;;14.15;4.78;;;10.50;99.90;;;;;;5055536;28;20036;-82
2021/05/13 02:35:10;;;;;;;14.18;4.40;;;10.50;99.90;;;;;;5045498;28;20060;-82
2021/05/13 02:37:37;;;;;;;17.38;5.18;;;10.50;99.90;;;;;;5045920;28;20594;-81
2021/05/13 02:40:05;;;;;;;15.95;5.90;;;10.50;99.90;;;;;;5037491;28;20549;-82
2021/05/13 02:42:33;;;;;;;17.80;6.10;;;10.40;99.90;;;;;;5047336;28;20498;-82
2021/05/13 02:45:00;;;;;;;15.65;5.00;;;10.40;99.90;;;;;;5045551;28;20498;-81
2021/05/13 02:47:26;;;;;;;12.73;4.60;;;10.30;99.90;;;;;;5043401;28;20044;-82
2021/05/13 02:49:53;;;;;;;15.10;4.90;;;10.30;99.90;;;;;;5042178;28;20140;-82
2021/05/13 02:52:20;;;;;;;9.90;4.97;;;10.30;99.90;;;;;;5063964;28;20107;-82
2021/05/13 02:54:47;;;;;;;14.40;4.20;;;10.20;99.90;;;;;;5048529;28;20097;-82
2021/05/13 02:57:14;;;;;;;11.55;4.00;;;10.20;99.90;;;;;;5024677;28;20148;-82
2021/05/13 02:59:46;;;;;;;10.82;4.72;;;10.20;99.90;;;;;;5058423;28;20052;-82
2021/05/13 03:02:14;;;;;;;13.25;5.25;;;10.20;99.90;;;;;;5076371;28;20069;-82
2021/05/13 03:04:42;;;;;;;19.30;4.90;;;10.20;99.90;;;;;;5062693;28;20054;-82
2021/05/13 03:07:10;;;;;;;16.25;4.93;;;10.20;99.90;;;;;;5056509;28;20056;-82
2021/05/13 03:09:51;;;;;;;16.48;5.13;;;10.20;99.90;;;;;;5076103;28;20116;-82
2021/05/13 03:12:17;;;;;;;9.23;5.00;;;10.20;99.90;;;;;;5074676;28;20055;-82
2021/05/13 03:14:45;;;;;;;13.38;6.22;;;10.20;99.90;;;;;;5050773;28;20057;-82
2021/05/13 03:17:12;;;;;;;13.02;5.38;;;10.20;99.90;;;;;;5016298;28;20063;-82
2021/05/13 03:19:45;;;;;;;15.90;5.53;;;10.20;99.90;;;;;;5044557;28;20057;-82
2021/05/13 03:22:17;;;;;;;14.40;6.10;;;10.20;99.90;;;;;;5043413;28;20057;-82
2021/05/13 03:24:49;;;;;;;17.27;6.85;;;10.20;99.90;;;;;;5045109;28;20129;-82
2021/05/13 03:29:56;;;;;;;16.90;5.85;;;10.10;99.90;;;;;;5046437;28;20033;-82
2021/05/13 03:32:23;;;;;;;21.52;5.90;;;10.10;99.90;;;;;;5020524;28;20133;-82
2021/05/13 03:34:51;;;;;;;17.08;6.18;;;10.10;99.90;;;;;;5063816;28;20059;-82
2021/05/13 03:37:20;;;;;;;17.60;5.57;;;10.10;99.90;;;;;;5052168;28;20053;-82
2021/05/13 03:39:47;;;;;;;20.23;6.03;;;10.10;99.90;;;;;;5071104;28;20140;-82
2021/05/13 03:42:13;;;;;;;16.85;7.03;;;10.00;99.90;;;;;;5065465;28;20147;-83
2021/05/13 03:44:40;;;;;;;16.05;6.35;;;10.00;99.90;;;;;;5044611;28;20048;-83
2021/05/13 03:47:07;;;;;;;20.45;6.78;;;10.00;99.90;;;;;;5065178;28;20132;-83
2021/05/13 03:49:38;;;;;;;23.17;8.30;;;10.00;99.90;;;;;;5045867;28;20045;-83
2021/05/13 03:52:05;;;;;;;26.30;7.82;;;10.00;99.90;;;;;;5050663;28;20113;-82
2021/05/13 03:54:32;;;;;;;20.92;7.10;;;9.90;99.90;;;;;;5043031;28;20045;-81
2021/05/13 03:56:59;;;;;;;27.73;8.13;;;10.00;99.90;;;;;;5051760;28;20080;-81
2021/05/13 03:59:28;;;;;;;27.85;10.75;;;10.00;99.90;;;;;;5063980;28;20083;-82
2021/05/13 04:02:06;;;;;;;26.00;10.55;;;10.00;99.90;;;;;;5045880;28;20048;-82
2021/05/13 04:04:33;;;;;;;23.05;8.85;;;10.00;99.90;;;;;;5049878;28;20063;-83
2021/05/13 04:06:59;;;;;;;22.98;8.75;;;10.00;99.90;;;;;;5048286;28;20230;-82
2021/05/13 04:09:29;;;;;;;20.33;8.00;;;10.00;99.90;;;;;;5044466;28;20065;-82
2021/05/13 04:11:56;;;;;;;23.60;8.02;;;10.00;99.90;;;;;;5047212;28;20147;-81
2021/05/13 04:14:23;;;;;;;20.92;8.43;;;10.00;99.90;;;;;;5032089;28;20132;-82
2021/05/13 04:16:53;;;;;;;25.05;8.85;;;10.10;99.90;;;;;;5043928;28;20061;-82
2021/05/13 04:19:21;;;;;;;28.50;9.73;;;10.00;99.90;;;;;;5049834;28;20048;-82
2021/05/13 04:21:49;;;;;;;22.88;9.38;;;10.10;99.90;;;;;;5050171;28;20048;-82
2021/05/13 04:24:18;;;;;;;31.92;9.93;;;10.10;99.90;;;;;;5011444;28;20120;-83
2021/05/13 04:26:45;;;;;;;24.27;9.88;;;10.10;99.90;;;;;;5026086;28;20111;-82
2021/05/13 04:29:13;;;;;;;25.95;10.50;;;10.10;99.90;;;;;;5024037;28;20045;-83
2021/05/13 04:31:39;;;;;;;36.03;11.05;;;10.20;99.90;;;;;;5007204;28;20062;-83
2021/05/13 04:34:06;;;;;;;25.80;10.02;;;10.20;99.90;;;;;;5009985;28;20049;-83
2021/05/13 04:36:33;;;;;;;23.70;9.90;;;10.20;99.90;;;;;;5008346;28;20069;-83
2021/05/13 04:39:00;;;;;;;23.48;9.70;;;10.30;99.90;;;;;;5022182;28;20148;-83
2021/05/13 04:41:31;;;;;;;23.17;9.88;;;10.30;99.90;;;;;;5010019;28;20058;-82
2021/05/13 04:43:58;;;;;;;18.75;10.35;;;10.30;99.90;;;;;;5008794;28;20066;-83
2021/05/13 04:46:28;;;;;;;29.00;9.75;;;10.40;99.90;;;;;;5015830;28;20507;-81
2021/05/13 04:49:18;;;;;;;28.30;9.82;;;10.50;99.90;;;;;;5001161;28;20065;-82
2021/05/13 04:51:45;;;;;;;29.60;10.00;;;10.50;99.90;;;;;;5018789;28;20049;-82
2021/05/13 04:54:14;;;;;;;22.13;9.93;;;10.60;99.90;;;;;;5009395;28;20048;-83
2021/05/13 04:56:41;;;;;;;27.77;10.15;;;10.70;99.90;;;;;;5025079;28;20102;-83
2021/05/13 04:59:08;;;;;;;31.85;10.13;;;10.80;99.90;;;;;;5007228;28;20042;-83
2021/05/13 05:01:35;;;;;;;28.30;11.50;;;10.80;99.90;;;;;;5006835;28;20136;-82
2021/05/13 05:04:02;;;;;;;30.38;10.82;;;10.90;99.90;;;;;;5008457;28;20084;-83
2021/05/13 05:06:29;;;;;;;28.67;9.88;;;10.90;99.90;;;;;;5006313;28;20117;-82
2021/05/13 05:08:56;;;;;;;25.65;10.40;;;11.00;99.90;;;;;;5007458;28;20054;-82
2021/05/13 05:11:23;;;;;;;26.15;9.18;;;11.00;99.90;;;;;;5007311;28;20104;-82
2021/05/13 05:13:50;;;;;;;24.02;8.93;;;11.00;99.90;;;;;;5008095;28;20100;-83
2021/05/13 05:16:17;;;;;;;30.65;9.32;;;11.10;99.90;;;;;;5010708;28;20141;-84
2021/05/13 05:18:44;;;;;;;20.75;9.77;;;11.20;99.90;;;;;;5021636;28;20080;-81
2021/05/13 05:21:11;;;;;;;25.00;8.43;;;11.20;99.90;;;;;;5024197;28;20052;-82
2021/05/13 05:23:38;;;;;;;22.98;8.52;;;11.30;99.90;;;;;;5036621;28;20056;-82
2021/05/13 05:26:06;;;;;;;30.63;9.18;;;11.40;99.90;;;;;;5053038;28;20068;-83
2021/05/13 05:28:33;;;;;;;25.77;9.50;;;11.50;99.90;;;;;;5057723;28;20064;-83
2021/05/13 05:31:00;;;;;;;23.75;8.13;;;11.50;99.90;;;;;;5045092;28;20049;-82
2021/05/13 05:33:27;;;;;;;26.63;9.32;;;11.60;99.90;;;;;;5046396;28;20851;-82
2021/05/13 05:35:54;;;;;;;24.92;8.82;;;11.70;99.90;;;;;;5047460;28;20055;-82
2021/05/13 05:38:21;;;;;;;19.85;8.50;;;11.70;99.90;;;;;;5048033;28;20098;-83
2021/05/13 05:40:48;;;;;;;26.83;8.63;;;11.80;99.90;;;;;;5034601;28;20978;-82
2021/05/13 05:43:15;;;;;;;26.92;9.20;;;11.90;99.90;;;;;;5048129;28;20041;-82
2021/05/13 05:45:43;;;;;;;22.10;8.45;;;12.10;99.90;;;;;;5061297;28;20059;-83
2021/05/13 05:48:10;;;;;;;23.42;8.27;;;12.10;99.90;;;;;;5002900;28;20572;-83
2021/05/13 05:50:40;;;;;;;22.92;8.75;;;12.30;99.90;;;;;;5032594;28;20080;-83
2021/05/13 05:53:08;;;;;;;16.23;8.63;;;12.40;99.90;;;;;;5033540;28;20542;-83
2021/05/13 05:55:35;;;;;;;21.67;8.30;;;12.60;99.90;;;;;;5035058;28;20040;-83
2021/05/13 05:58:03;;;;;;;20.20;9.93;;;12.80;99.90;;;;;;5040053;28;20076;-83
2021/05/13 06:00:32;;;;;;;22.50;10.07;;;13.10;99.90;;;;;;5043487;28;20132;-84
2021/05/13 06:02:59;;;;;;;22.85;11.07;;;13.40;99.90;;;;;;5047339;28;20068;-83
2021/05/13 06:05:26;;;;;;;23.42;10.38;;;13.50;99.90;;;;;;5048237;28;20056;-83
2021/05/13 06:07:53;;;;;;;18.95;9.57;;;13.50;99.90;;;;;;5057542;28;20048;-83
2021/05/13 06:10:20;;;;;;;25.50;8.60;;;13.60;99.90;;;;;;5047205;28;20084;-83
2021/05/13 06:12:52;;;;;;;23.52;8.35;;;13.60;99.90;;;;;;5046507;28;20048;-83
2021/05/13 06:15:21;;;;;;;17.98;8.35;;;13.60;99.90;;;;;;5063516;28;20044;-84
2021/05/13 06:17:48;;;;;;;19.60;6.93;;;13.70;99.90;;;;;;5056107;28;20052;-83
2021/05/13 06:20:19;;;;;;;15.70;6.30;;;13.80;99.90;;;;;;5044622;28;20484;-83
2021/05/13 06:22:48;;;;;;;14.82;6.50;;;13.80;99.90;;;;;;5059512;28;20083;-83
2021/05/13 06:25:16;;;;;;;14.85;5.75;;;13.90;99.90;;;;;;5046264;28;20182;-83
2021/05/13 06:27:44;;;;;;;13.85;5.88;;;14.00;99.90;;;;;;5054783;28;20055;-83
2021/05/13 06:30:18;;;;;;;10.85;5.15;;;14.10;99.90;;;;;;5001660;28;20053;-83
2021/05/13 06:32:47;;;;;;;12.65;5.60;;;14.10;99.90;;;;;;5036164;28;20040;-83
2021/05/13 06:35:16;;;;;;;15.70;5.97;;;14.20;99.90;;;;;;5046656;28;20723;-83
2021/05/13 06:37:43;;;;;;;9.82;5.47;;;14.30;99.90;;;;;;5058881;28;20572;-82
2021/05/13 06:40:12;;;;;;;10.02;6.30;;;14.40;99.90;;;;;;5051075;28;20049;-83
2021/05/13 06:42:42;;;;;;;10.10;6.15;;;14.50;99.90;;;;;;5065056;28;20155;-83
2021/05/13 06:45:11;;;;;;;14.68;6.65;;;14.60;99.90;;;;;;5041445;28;20053;-83
2021/05/13 06:47:39;;;;;;;12.80;6.13;;;14.70;99.90;;;;;;5046340;28;20496;-83
2021/05/13 06:50:08;;;;;;;14.13;6.63;;;14.80;99.90;;;;;;5061770;28;20075;-83
2021/05/13 06:52:36;;;;;;;15.75;6.50;;;14.90;99.90;;;;;;5042400;28;20520;-83
2021/05/13 06:55:07;;;;;;;9.85;6.22;;;14.90;99.90;;;;;;5030905;28;20049;-83
2021/05/13 06:57:33;;;;;;;10.82;5.70;;;15.00;99.90;;;;;;5044806;28;20080;-83
2021/05/13 07:00:00;;;;;;;11.65;5.68;;;15.10;99.90;;;;;;5035196;28;20059;-84
2021/05/13 07:02:32;;;;;;;14.82;6.28;;;15.10;99.90;;;;;;5019205;28;20078;-83
2021/05/13 07:05:02;;;;;;;18.08;6.43;;;15.10;99.90;;;;;;5029476;28;20481;-83
2021/05/13 07:07:29;;;;;;;12.48;7.15;;;15.20;99.90;;;;;;5045341;28;20044;-83
2021/05/13 07:09:56;;;;;;;13.65;6.50;;;15.30;99.90;;;;;;5044803;28;20098;-83
2021/05/13 07:12:24;;;;;;;10.40;6.63;;;15.30;99.90;;;;;;5049568;28;20426;-83
2021/05/13 07:14:50;;;;;;;14.23;8.05;;;15.40;99.90;;;;;;5034920;28;20091;-83
2021/05/13 07:17:18;;;;;;;8.00;6.32;;;15.50;99.90;;;;;;5046751;28;20098;-83
2021/05/13 07:19:45;;;;;;;12.10;7.22;;;15.70;99.90;;;;;;5058953;28;20127;-84
2021/05/13 07:22:12;;;;;;;11.55;7.13;;;15.80;99.90;;;;;;5038912;28;20506;-84
2021/05/13 07:24:41;;;;;;;12.30;6.78;;;15.90;99.90;;;;;;5056210;28;20048;-83
2021/05/13 07:27:09;;;;;;;14.73;7.40;;;16.10;99.90;;;;;;5063815;28;20978;-83
2021/05/13 07:29:37;;;;;;;13.77;7.70;;;16.20;99.90;;;;;;5044839;28;20067;-84
2021/05/13 07:32:05;;;;;;;12.73;7.25;;;16.30;99.90;;;;;;5045785;28;20048;-83
2021/05/13 07:34:33;;;;;;;17.65;7.95;;;16.30;99.90;;;;;;5035359;28;20048;-84
2021/05/13 07:37:02;;;;;;;12.38;6.97;;;16.30;99.90;;;;;;5044894;28;20638;-83
2021/05/13 07:39:29;;;;;;;12.30;7.32;;;16.30;99.90;;;;;;5051532;28;20055;-83
2021/05/13 07:41:56;;;;;;;12.25;7.43;;;16.50;99.90;;;;;;5044680;28;20598;-83
2021/05/13 07:44:23;;;;;;;17.50;8.30;;;16.70;99.90;;;;;;5046447;28;20099;-84
2021/05/13 07:46:49;;;;;;;14.00;7.40;;;16.90;99.90;;;;;;5051842;28;20055;-83
2021/05/13 07:49:17;;;;;;;12.00;7.63;;;17.00;99.90;;;;;;5061080;28;20102;-83
2021/05/13 07:51:46;;;;;;;13.95;7.55;;;17.10;99.90;;;;;;5046059;28;20053;-83
2021/05/13 07:54:14;;;;;;;15.65;7.60;;;17.20;99.90;;;;;;5046097;28;20083;-83
2021/05/13 07:56:40;;;;;;;13.45;8.73;;;17.30;99.90;;;;;;5045035;28;20075;-84
2021/05/13 07:59:08;;;;;;;9.90;7.72;;;17.50;99.90;;;;;;5030205;28;20049;-84
2021/05/13 08:01:35;;;;;;;12.77;7.82;;;17.60;99.90;;;;;;5028113;28;20044;-83
2021/05/13 08:04:02;;;;;;;11.27;8.15;;;17.70;99.90;;;;;;5059460;28;20098;-83
2021/05/13 08:06:29;;;;;;;13.32;7.78;;;17.80;99.90;;;;;;5046896;28;20153;-83
2021/05/13 08:08:56;;;;;;;12.75;7.95;;;17.80;99.90;;;;;;5056658;28;20095;-83
2021/05/13 08:11:22;;;;;;;10.00;7.70;;;17.80;99.90;;;;;;5055370;28;20145;-83
2021/05/13 08:13:49;;;;;;;17.52;8.70;;;17.70;99.90;;;;;;5048013;28;20104;-82
2021/05/13 08:16:16;;;;;;;13.38;8.73;;;17.70;99.90;;;;;;5062705;28;20611;-84
2021/05/13 08:18:43;;;;;;;13.48;7.50;;;17.90;99.90;;;;;;5061507;28;20458;-83
2021/05/13 08:21:10;;;;;;;12.35;7.90;;;17.90;99.90;;;;;;5053521;28;20453;-84
2021/05/13 08:23:37;;;;;;;21.02;9.40;;;17.90;99.90;;;;;;5049542;28;20080;-83
2021/05/13 08:26:05;;;;;;;17.80;7.60;;;18.00;99.90;;;;;;5052285;28;20830;-84
2021/05/13 08:28:32;;;;;;;12.85;7.75;;;18.00;99.90;;;;;;5050818;28;20115;-83
2021/05/13 08:30:59;;;;;;;16.67;8.10;;;18.10;99.90;;;;;;5067807;28;20056;-82
2021/05/13 08:33:25;;;;;;;14.55;7.88;;;18.20;99.90;;;;;;5054519;28;20055;-82
2021/05/13 08:35:52;;;;;;;13.65;8.23;;;18.20;99.90;;;;;;5059561;28;20049;-83
2021/05/13 08:38:19;;;;;;;12.23;7.65;;;18.20;99.90;;;;;;5073253;28;20067;-83
2021/05/13 08:40:46;;;;;;;18.67;8.05;;;18.30;99.90;;;;;;5068485;28;20049;-83
2021/05/13 08:43:29;;;;;;;16.42;7.85;;;18.40;99.90;;;;;;5051360;28;20048;-84
2021/05/13 08:45:58;;;;;;;16.48;8.18;;;18.50;99.90;;;;;;5074744;28;20068;-83
2021/05/13 08:48:28;;;;;;;10.80;7.72;;;18.70;99.90;;;;;;5057906;28;20118;-83
2021/05/13 08:50:56;;;;;;;11.93;7.68;;;18.80;99.90;;;;;;5057200;28;25086;-83
2021/05/13 08:53:23;;;;;;;10.13;7.75;;;18.90;99.90;;;;;;5055131;28;20045;-84
2021/05/13 08:55:50;;;;;;;15.63;7.78;;;18.80;99.90;;;;;;5064644;28;20079;-83
2021/05/13 08:58:19;;;;;;;13.55;7.78;;;19.00;99.90;;;;;;5047410;28;20091;-82
2021/05/13 09:00:56;;;;;;;15.63;8.50;;;19.20;99.90;;;;;;5037742;28;20064;-83
2021/05/13 09:03:35;;;;;;;17.55;8.10;;;19.30;99.90;;;;;;5051400;28;20053;-84
2021/05/13 09:06:06;;;;;;;13.18;8.02;;;19.10;99.90;;;;;;5050001;28;20049;-83
2021/05/13 09:08:34;;;;;;;12.13;8.90;;;19.00;99.90;;;;;;5063976;28;20510;-83
2021/05/13 09:11:12;;;;;;;13.07;7.10;;;19.00;99.90;;;;;;5046781;28;20053;-83
2021/05/13 09:13:40;;;;;;;9.07;7.20;;;19.20;99.90;;;;;;5047806;28;20401;-84
2021/05/13 09:16:35;;;;;;;11.80;7.13;;;19.30;99.90;;;;;;5033438;28;20056;-83
2021/05/13 09:19:33;;;;;;;12.60;7.55;;;19.40;99.90;;;;;;5059122;28;20052;-83
2021/05/13 09:22:04;;;;;;;11.85;7.95;;;19.60;99.90;;;;;;5047301;28;20075;-83
2021/05/13 09:24:56;;;;;;;15.55;7.70;;;19.60;99.90;;;;;;5053603;28;20061;-82
2021/05/13 09:27:24;;;;;;;14.73;8.63;;;19.60;99.90;;;;;;5064437;28;20053;-83
2021/05/13 09:30:17;;;;;;;11.68;7.88;;;19.60;99.90;;;;;;5060512;28;20067;-83
2021/05/13 09:32:49;;;;;;;12.07;7.70;;;19.60;99.90;;;;;;5049698;28;20061;-83
2021/05/13 09:35:20;;;;;;;14.38;8.25;;;19.80;99.30;;;;;;5062509;28;20067;-83
2021/05/13 09:37:53;;;;;;;13.70;7.45;;;19.90;99.60;;;;;;5054548;28;20401;-83
2021/05/13 09:40:22;;;;;;;9.85;7.10;;;20.00;99.60;;;;;;5038070;28;20136;-84
2021/05/13 09:43:19;;;;;;;16.85;7.88;;;20.30;98.70;;;;;;5037313;28;20049;-83
2021/05/13 09:45:53;;;;;;;12.38;7.35;;;20.40;98.60;;;;;;5045866;28;20223;-83
2021/05/13 09:48:38;;;;;;;13.43;6.95;;;20.50;97.70;;;;;;5047246;28;20144;-84
2021/05/13 09:51:26;;;;;;;10.90;6.75;;;20.50;97.00;;;;;;5048808;28;20138;-83
2021/05/13 09:54:16;;;;;;;13.90;7.38;;;20.40;95.90;;;;;;5045703;28;20059;-84
2021/05/13 09:56:47;;;;;;;11.35;6.47;;;20.30;97.90;;;;;;5038120;28;20075;-83
2021/05/13 09:59:34;;;;;;;12.73;7.40;;;20.20;96.80;;;;;;5041694;28;20523;-84
2021/05/13 10:02:06;;;;;;;12.45;6.82;;;20.00;96.90;;;;;;5043898;28;20029;-83
2021/05/13 10:04:34;;;;;;;13.65;6.88;;;20.00;96.60;;;;;;5047636;28;20079;-83
2021/05/13 10:07:01;;;;;;;12.55;7.05;;;20.10;96.20;;;;;;5063487;28;20139;-84
2021/05/13 10:09:31;;;;;;;14.23;6.60;;;20.10;95.70;;;;;;5046997;28;20048;-83
2021/05/13 10:12:06;;;;;;;11.65;6.70;;;20.20;96.90;;;;;;5042208;28;20059;-84
2021/05/13 10:14:34;;;;;;;9.05;6.45;;;20.50;95.40;;;;;;5060138;28;20118;-84
2021/05/13 10:17:04;;;;;;;12.50;7.30;;;20.60;95.10;;;;;;5046627;28;20454;-83
2021/05/13 10:19:44;;;;;;;9.95;6.70;;;20.80;93.30;;;;;;5037432;28;20041;-84
2021/05/13 10:22:13;;;;;;;9.88;6.25;;;20.70;92.80;;;;;;5047151;28;20053;-84
2021/05/13 10:24:44;;;;;;;10.45;6.03;;;20.50;93.20;;;;;;5039541;28;20136;-83
2021/05/13 10:27:30;;;;;;;15.65;6.55;;;20.30;93.50;;;;;;5064556;28;20045;-83
2021/05/13 10:30:00;;;;;;;11.68;6.63;;;20.20;94.00;;;;;;5017767;28;20072;-83
2021/05/13 10:32:31;;;;;;;11.13;6.18;;;20.40;92.50;;;;;;5047283;28;20135;-83
2021/05/13 10:35:06;;;;;;;7.93;5.93;;;20.40;92.40;;;;;;5046688;28;20053;-83
2021/05/13 10:37:36;;;;;;;9.60;5.75;;;20.50;92.10;;;;;;5047580;28;20847;-83
2021/05/13 10:40:18;;;;;;;7.75;5.90;;;20.50;91.50;;;;;;5046858;28;20102;-83
2021/05/13 10:42:56;;;;;;;8.97;5.17;;;20.40;91.50;;;;;;5025018;28;20057;-84
2021/05/13 10:45:26;;;;;;;9.63;5.35;;;20.30;92.00;;;;;;5040180;28;20045;-83
2021/05/13 10:48:20;;;;;;;12.35;5.55;;;20.10;92.20;;;;;;5057777;28;20045;-83
2021/05/13 10:50:59;;;;;;;10.02;5.47;;;20.00;94.40;;;;;;5048335;28;20082;-83
2021/05/13 10:53:35;;;;;;;12.52;5.50;;;20.20;91.70;;;;;;5047042;28;20072;-83
2021/05/13 10:56:25;;;;;;;8.20;5.28;;;20.50;92.20;;;;;;5047065;28;20079;-83
2021/05/13 10:59:07;;;;;;;6.43;4.78;;;21.00;93.10;;;;;;5045745;28;20415;-84
2021/05/13 11:01:34;;;;;;;7.35;5.18;;;21.50;92.60;;;;;;5046985;28;20107;-83
2021/05/13 11:04:20;;;;;;;9.90;5.63;;;22.00;91.10;;;;;;5048489;28;20060;-83
2021/05/13 11:06:59;;;;;;;8.18;4.63;;;22.30;90.00;;;;;;5029525;28;20134;-83
2021/05/13 11:09:40;;;;;;;6.00;3.90;;;22.40;87.60;;;;;;5045588;28;20048;-83
2021/05/13 11:12:27;;;;;;;11.18;4.30;;;22.50;81.70;;;;;;5046352;28;20045;-84
2021/05/13 11:20:33;;;;;;;10.00;4.35;;;21.50;81.40;;;;;;5045676;28;20562;-84
2021/05/13 11:23:06;;;;;;;6.47;4.32;;;21.30;84.00;;;;;;5046415;28;20040;-84
2021/05/13 11:25:49;;;;;;;10.25;4.78;;;21.10;83.40;;;;;;5062202;28;20441;-83
2021/05/13 11:28:28;;;;;;;9.68;3.67;;;20.90;84.10;;;;;;5038673;28;20029;-83
2021/05/13 11:31:07;;;;;;;7.93;3.13;;;20.70;84.50;;;;;;5055753;28;20049;-84
2021/05/13 11:33:45;;;;;;;8.02;3.45;;;21.10;87.50;;;;;;5048132;28;20106;-84
2021/05/13 11:36:19;;;;;;;7.40;3.42;;;21.90;87.40;;;;;;5045658;28;20075;-84
2021/05/13 11:38:52;;;;;;;7.25;3.22;;;22.20;83.10;;;;;;5046731;28;20052;-84
2021/05/13 11:41:20;;;;;;;5.82;2.90;;;22.20;80.00;;;;;;5012360;28;20049;-84
2021/05/13 11:43:48;;;;;;;10.90;3.55;;;22.20;79.90;;;;;;5046352;28;20064;-83
2021/05/13 11:46:20;;;;;;;6.30;2.97;;;22.60;80.50;;;;;;5040239;28;20113;-83
2021/05/13 11:48:48;;;;;;;5.25;2.75;;;22.90;81.80;;;;;;5060291;28;20048;-83
2021/05/13 11:51:19;;;;;;;8.50;2.97;;;23.40;74.50;;;;;;5056109;28;20045;-84
2021/05/13 11:53:47;;;;;;;6.20;3.00;;;23.60;75.50;;;;;;5041729;28;20106;-83
2021/05/13 11:56:16;;;;;;;4.68;3.13;;;23.70;72.50;;;;;;5061817;28;20052;-83
2021/05/13 11:58:54;;;;;;;6.70;3.38;;;24.00;72.20;;;;;;5046030;28;20068;-83
2021/05/13 12:01:34;;;;;;;14.38;3.70;;;24.40;71.30;;;;;;5053602;28;20160;-83
2021/05/13 12:04:15;;;;;;;9.68;2.92;;;25.00;68.30;;;;;;5064237;28;20053;-84
2021/05/13 12:06:58;;;;;;;3.72;2.25;;;25.60;64.90;;;;;;5047972;28;20100;-84
2021/05/13 12:09:28;;;;;;;8.05;2.40;;;26.00;60.00;;;;;;5048462;28;20084;-84
2021/05/13 12:11:59;;;;;;;8.93;3.00;;;25.40;59.60;;;;;;5044789;28;20109;-83
2021/05/13 12:14:28;;;;;;;9.27;3.13;;;24.60;60.20;;;;;;5027336;28;20071;-84
2021/05/13 12:17:07;;;;;;;5.72;2.70;;;23.90;62.50;;;;;;5046288;28;20087;-83
2021/05/13 12:19:38;;;;;;;6.57;2.60;;;23.20;63.30;;;;;;5048389;28;20076;-82
2021/05/13 12:22:11;;;;;;;7.20;2.50;;;22.80;64.80;;;;;;5051452;28;20045;-83
2021/05/13 12:24:43;;;;;;;7.78;2.15;;;22.70;64.90;;;;;;5052061;28;20199;-83
2021/05/13 12:27:11;;;;;;;4.55;2.15;;;22.40;65.30;;;;;;5051470;28;20053;-83
2021/05/13 12:29:46;;;;;;;7.30;2.40;;;22.10;66.90;;;;;;5050790;28;20048;-83
2021/05/13 12:32:30;;;;;;;5.85;1.83;;;21.70;66.50;;;;;;5052627;28;20308;-82
2021/05/13 12:34:57;;;;;;;6.82;2.30;;;21.30;71.10;;;;;;5056272;28;20056;-82
2021/05/13 12:37:24;;;;;;;10.13;2.08;;;21.10;69.80;;;;;;5043368;28;20045;-82
2021/05/13 12:39:51;;;;;;;9.85;3.20;;;20.90;70.50;;;;;;5048624;28;20056;-82
2021/05/13 12:42:23;;;;;;;8.30;2.35;;;20.70;69.60;;;;;;5048925;28;20465;-83
2021/05/13 12:44:50;;;;;;;8.48;2.38;;;20.50;70.30;;;;;;5050923;28;20045;-83
2021/05/13 12:47:24;;;;;;;5.28;1.88;;;20.20;69.30;;;;;;5044207;28;20060;-83
2021/05/13 12:50:00;;;;;;;;;;;19.90;70.40;;;;;;5046444;28;20056;-82
2021/05/13 12:52:27;;;;;;;6.63;1.63;;;19.70;71.50;;;;;;5065973;28;20503;-83
2021/05/13 12:55:10;;;;;;;7.03;2.35;;;19.60;73.90;;;;;;5055373;28;20048;-82
2021/05/13 12:57:39;;;;;;;7.55;1.98;;;19.40;75.20;;;;;;5043701;28;20064;-83
2021/05/13 13:00:07;;;;;;;8.35;2.05;;;19.20;76.50;;;;;;5064203;28;20054;-83
2021/05/13 13:02:34;;;;;;;8.52;2.20;;;19.20;76.40;;;;;;5063667;28;20059;-83
2021/05/13 13:05:06;;;;;;;5.53;2.00;;;19.00;77.30;;;;;;5050424;28;20052;-83
2021/05/13 13:07:47;;;;;;;6.78;1.85;;;18.80;78.40;;;;;;5062481;28;20481;-82